Time;durP1;ratioP1;P1;durP2;ratioP2;P2;SDS_P1;SDS_P2;PMS_P1;PMS_P2;Temp;Humidity;BMP_temperature;BMP_pressure;BME280_temperature;BME280_humidity;BME280_pressure;Samples;Min_cycle;Max_cycle;Signal;HPM_P1;HPM_P2
2022/09/25 00:00:48;;;;;;;9.52;2.70;;;;;;;;;;5047977;28;20468;-66
2022/09/25 00:03:15;;;;;;;7.35;3.30;;;;;;;;;;5047258;28;20037;-66
2022/09/25 00:05:44;;;;;;;7.80;2.60;;;;;;;;;;5048255;28;20112;-66
2022/09/25 00:08:10;;;;;;;6.22;2.67;;;;;;;;;;5037706;28;20116;-66
2022/09/25 00:10:41;;;;;;;5.45;2.40;;;;;;;;;;5025996;28;20098;-66
2022/09/25 00:13:07;;;;;;;6.90;2.97;;;;;;;;;;5028024;28;20037;-66
2022/09/25 00:15:32;;;;;;;7.90;2.53;;;;;;;;;;5029305;28;20044;-66
2022/09/25 00:17:57;;;;;;;9.48;2.90;;;;;;;;;;5067610;28;20024;-66
2022/09/25 00:20:23;;;;;;;7.30;2.83;;;;;;;;;;5068027;28;20112;-66
2022/09/25 00:22:48;;;;;;;9.80;2.50;;;;;;;;;;5068010;28;20028;-66
2022/09/25 00:25:15;;;;;;;7.43;2.65;;;;;;;;;;5067213;28;20766;-66
2022/09/25 00:27:42;;;;;;;7.35;2.55;;;;;;;;;;5068040;28;20037;-66
2022/09/25 00:30:09;;;;;;;8.32;2.88;;;;;;;;;;5067758;28;20078;-66
2022/09/25 00:32:35;;;;;;;9.68;2.70;;;;;;;;;;5066328;28;20064;-66
2022/09/25 00:35:00;;;;;;;5.20;2.70;;;;;;;;;;5067887;28;20043;-66
2022/09/25 00:37:27;;;;;;;7.20;2.92;;;;;;;;;;5049418;28;20033;-66
2022/09/25 00:39:53;;;;;;;11.13;2.80;;;;;;;;;;5039772;28;20033;-66
2022/09/25 00:42:20;;;;;;;5.10;2.70;;;;;;;;;;5051272;28;20033;-66
2022/09/25 00:44:59;;;;;;;16.70;3.78;;;;;;;;;;5051535;28;20618;-66
2022/09/25 00:47:40;;;;;;;13.02;2.90;;;;;;;;;;5030203;28;20075;-66
2022/09/25 00:50:15;;;;;;;8.75;2.88;;;;;;;;;;5030748;28;20032;-66
2022/09/25 00:52:41;;;;;;;5.90;2.67;;;;;;;;;;5030272;28;20064;-66
2022/09/25 00:55:07;;;;;;;20.50;2.83;;;;;;;;;;5029957;28;20041;-66
2022/09/25 00:57:37;;;;;;;5.20;2.60;;;;;;;;;;5029456;28;20521;-66
2022/09/25 01:00:09;;;;;;;4.63;2.08;;;;;;;;;;5043020;28;20033;-66
2022/09/25 01:02:44;;;;;;;10.15;2.80;;;;;;;;;;5070550;28;20501;-66
2022/09/25 01:05:13;;;;;;;6.07;2.53;;;;;;;;;;5070372;28;20056;-66
2022/09/25 01:07:42;;;;;;;5.63;2.08;;;;;;;;;;5053672;28;20020;-66
2022/09/25 01:10:08;;;;;;;6.80;2.50;;;;;;;;;;5071315;28;20052;-66
2022/09/25 01:12:42;;;;;;;6.53;2.25;;;;;;;;;;5061357;28;20130;-66
2022/09/25 01:15:12;;;;;;;4.55;2.55;;;;;;;;;;5031389;28;20414;-66
2022/09/25 01:17:51;;;;;;;7.63;2.40;;;;;;;;;;5030806;28;20395;-66
2022/09/25 01:20:27;;;;;;;7.65;2.47;;;;;;;;;;5030913;28;20038;-66
2022/09/25 01:23:20;;;;;;;5.85;2.25;;;;;;;;;;5068033;28;20813;-66
2022/09/25 01:26:13;;;;;;;8.55;2.75;;;;;;;;;;5068939;28;20036;-66
2022/09/25 01:29:00;;;;;;;7.22;2.15;;;;;;;;;;5027698;28;20041;-66
2022/09/25 01:31:52;;;;;;;8.73;2.08;;;;;;;;;;5030793;28;20040;-66
2022/09/25 01:34:39;;;;;;;6.45;2.30;;;;;;;;;;5031528;28;20067;-66
2022/09/25 01:37:17;;;;;;;4.43;2.15;;;;;;;;;;5058676;28;20445;-66
2022/09/25 01:40:00;;;;;;;9.15;2.42;;;;;;;;;;5059687;28;20036;-66
2022/09/25 01:42:30;;;;;;;6.78;2.60;;;;;;;;;;5050455;28;20044;-66
2022/09/25 01:45:00;;;;;;;5.55;2.25;;;;;;;;;;5050585;28;20498;-66
2022/09/25 01:47:28;;;;;;;6.40;2.78;;;;;;;;;;5019138;28;20112;-66
2022/09/25 01:49:58;;;;;;;7.25;2.40;;;;;;;;;;5031198;28;20013;-66
2022/09/25 01:52:28;;;;;;;12.23;2.60;;;;;;;;;;5029172;28;20522;-66
2022/09/25 01:55:02;;;;;;;6.93;2.50;;;;;;;;;;5029949;28;20097;-66
2022/09/25 01:57:39;;;;;;;5.75;2.30;;;;;;;;;;5030284;28;20034;-66
2022/09/25 02:00:07;;;;;;;6.85;2.25;;;;;;;;;;5030094;28;20029;-66
2022/09/25 02:02:38;;;;;;;7.43;2.10;;;;;;;;;;5012540;28;20120;-66
2022/09/25 02:05:07;;;;;;;4.78;2.40;;;;;;;;;;5030351;28;20132;-67
2022/09/25 02:07:37;;;;;;;5.70;2.40;;;;;;;;;;5029537;28;20048;-66
2022/09/25 02:10:11;;;;;;;9.40;2.80;;;;;;;;;;5030314;28;20037;-66
2022/09/25 02:12:42;;;;;;;7.20;2.85;;;;;;;;;;5033200;28;20037;-66
2022/09/25 02:15:16;;;;;;;4.22;2.20;;;;;;;;;;5050327;28;20028;-66
2022/09/25 02:20:35;;;;;;;5.68;2.40;;;;;;;;;;5050067;28;20117;-66
2022/09/25 02:23:03;;;;;;;5.22;2.45;;;;;;;;;;5031963;28;20082;-66
2022/09/25 02:25:38;;;;;;;7.32;2.60;;;;;;;;;;5031299;28;20124;-66
2022/09/25 02:28:03;;;;;;;6.38;2.42;;;;;;;;;;5031963;28;20044;-66
2022/09/25 02:30:28;;;;;;;3.13;2.10;;;;;;;;;;5050771;28;20033;-66
2022/09/25 02:32:56;;;;;;;5.75;2.38;;;;;;;;;;5043147;28;20119;-66
2022/09/25 02:35:23;;;;;;;7.55;2.53;;;;;;;;;;5048391;28;20029;-66
2022/09/25 02:37:48;;;;;;;6.57;2.53;;;;;;;;;;5049867;28;20013;-66
2022/09/25 02:40:13;;;;;;;6.78;2.40;;;;;;;;;;5035608;28;20057;-67
2022/09/25 02:42:45;;;;;;;5.32;2.35;;;;;;;;;;5045760;28;20037;-66
2022/09/25 02:45:10;;;;;;;7.70;2.40;;;;;;;;;;5049018;28;20083;-66
2022/09/25 02:48:03;;;;;;;7.05;2.65;;;;;;;;;;5048565;28;20032;-66
2022/09/25 02:50:46;;;;;;;8.32;2.58;;;;;;;;;;5032317;28;20021;-66
2022/09/25 02:53:27;;;;;;;9.60;2.40;;;;;;;;;;5029049;28;20040;-65
2022/09/25 02:56:00;;;;;;;9.07;2.97;;;;;;;;;;5028906;28;20030;-66
2022/09/25 02:58:47;;;;;;;4.90;2.58;;;;;;;;;;5028843;28;20041;-66
2022/09/25 03:01:15;;;;;;;7.93;2.55;;;;;;;;;;5029017;28;20536;-66
2022/09/25 03:03:42;;;;;;;6.97;2.50;;;;;;;;;;5028857;28;20068;-67
2022/09/25 03:06:09;;;;;;;4.93;2.25;;;;;;;;;;5028352;28;20491;-67
2022/09/25 03:08:41;;;;;;;6.57;2.70;;;;;;;;;;5029278;28;20033;-67
2022/09/25 03:11:10;;;;;;;7.28;2.85;;;;;;;;;;5043043;28;20055;-67
2022/09/25 03:13:36;;;;;;;4.38;2.30;;;;;;;;;;5050679;28;20048;-67
2022/09/25 03:16:09;;;;;;;5.90;2.22;;;;;;;;;;5068543;28;20041;-67
2022/09/25 03:18:34;;;;;;;4.35;2.28;;;;;;;;;;5039095;28;20033;-66
2022/09/25 03:21:00;;;;;;;8.90;2.55;;;;;;;;;;5026939;28;20092;-67
2022/09/25 03:23:25;;;;;;;5.57;2.38;;;;;;;;;;5028494;28;20025;-67
2022/09/25 03:25:53;;;;;;;5.43;2.13;;;;;;;;;;5028796;28;20044;-67
2022/09/25 03:28:19;;;;;;;5.72;2.15;;;;;;;;;;5027025;28;20059;-66
2022/09/25 03:30:55;;;;;;;5.32;2.22;;;;;;;;;;5027943;28;20057;-66
2022/09/25 03:33:20;;;;;;;7.50;2.70;;;;;;;;;;5028182;28;20046;-67
2022/09/25 03:35:45;;;;;;;6.57;2.17;;;;;;;;;;5029083;28;20025;-66
2022/09/25 03:38:11;;;;;;;5.78;2.60;;;;;;;;;;5047444;28;20052;-66
2022/09/25 03:40:36;;;;;;;5.78;2.70;;;;;;;;;;5047930;28;20033;-67
2022/09/25 03:43:02;;;;;;;10.20;2.53;;;;;;;;;;5047748;28;20036;-66
2022/09/25 03:45:27;;;;;;;6.32;2.35;;;;;;;;;;5047013;28;20071;-66
2022/09/25 03:47:53;;;;;;;6.88;2.80;;;;;;;;;;5048151;28;20123;-66
2022/09/25 03:50:18;;;;;;;6.85;2.78;;;;;;;;;;5047836;28;20122;-66
2022/09/25 03:52:43;;;;;;;5.22;2.50;;;;;;;;;;5048223;28;20032;-66
2022/09/25 03:55:10;;;;;;;6.35;2.78;;;;;;;;;;5048449;28;20090;-66
2022/09/25 03:57:36;;;;;;;8.77;2.90;;;;;;;;;;5048298;28;20071;-66
2022/09/25 04:00:02;;;;;;;7.68;2.65;;;;;;;;;;5047416;28;20063;-66
2022/09/25 04:02:28;;;;;;;14.55;2.95;;;;;;;;;;5047894;28;20410;-66
2022/09/25 04:04:54;;;;;;;5.20;2.97;;;;;;;;;;5048461;28;20503;-66
2022/09/25 04:07:20;;;;;;;4.43;2.65;;;;;;;;;;5048033;28;20123;-66
2022/09/25 04:09:46;;;;;;;10.85;2.40;;;;;;;;;;5047593;28;20037;-66
2022/09/25 04:12:11;;;;;;;5.97;2.35;;;;;;;;;;5048121;28;20433;-66
2022/09/25 04:14:37;;;;;;;10.88;3.55;;;;;;;;;;5028008;28;20037;-66
2022/09/25 04:17:03;;;;;;;8.00;2.80;;;;;;;;;;5030276;28;20120;-66
2022/09/25 04:19:28;;;;;;;6.28;2.92;;;;;;;;;;5047715;28;20037;-66
2022/09/25 04:21:53;;;;;;;8.50;3.10;;;;;;;;;;5029374;28;20502;-66
2022/09/25 04:27:02;;;;;;;;;;;;;;;;;;5048492;28;20409;-66
2022/09/25 04:29:27;;;;;;;9.97;3.10;;;;;;;;;;5047830;28;20426;-66
2022/09/25 04:34:37;;;;;;;12.20;2.83;;;;;;;;;;5063901;28;20575;-66
2022/09/25 04:37:02;;;;;;;6.72;2.92;;;;;;;;;;5067731;28;20036;-66
2022/09/25 04:39:28;;;;;;;6.05;2.63;;;;;;;;;;5040380;28;20044;-66
2022/09/25 04:41:53;;;;;;;6.25;2.88;;;;;;;;;;5047545;28;20029;-66
2022/09/25 04:44:19;;;;;;;9.45;3.60;;;;;;;;;;5044401;28;20049;-67
2022/09/25 04:46:44;;;;;;;5.13;3.17;;;;;;;;;;5048308;28;20033;-66
2022/09/25 04:49:10;;;;;;;6.60;3.05;;;;;;;;;;5046832;28;20041;-66
2022/09/25 04:51:35;;;;;;;9.32;3.45;;;;;;;;;;5047442;28;20044;-66
2022/09/25 04:54:00;;;;;;;12.77;3.75;;;;;;;;;;5047571;28;20037;-66
2022/09/25 04:56:25;;;;;;;6.75;3.13;;;;;;;;;;5047845;28;20025;-66
2022/09/25 04:58:51;;;;;;;7.13;3.20;;;;;;;;;;5047695;28;20029;-66
2022/09/25 05:01:19;;;;;;;6.68;2.80;;;;;;;;;;5047853;28;20040;-66
2022/09/25 05:03:48;;;;;;;9.57;3.45;;;;;;;;;;5047161;28;20033;-67
2022/09/25 05:06:14;;;;;;;8.88;3.10;;;;;;;;;;5047339;28;20029;-66
2022/09/25 05:08:39;;;;;;;6.18;2.83;;;;;;;;;;5029539;28;20049;-67
2022/09/25 05:11:04;;;;;;;6.43;3.13;;;;;;;;;;5047391;28;20037;-67
2022/09/25 05:13:30;;;;;;;12.57;3.33;;;;;;;;;;5029148;28;20577;-66
2022/09/25 05:15:55;;;;;;;8.02;3.30;;;;;;;;;;5047167;28;20581;-67
2022/09/25 05:18:22;;;;;;;7.90;3.20;;;;;;;;;;5047214;28;20575;-67
2022/09/25 05:20:49;;;;;;;11.45;3.97;;;;;;;;;;5021378;28;20166;-66
2022/09/25 05:23:15;;;;;;;8.40;3.80;;;;;;;;;;5063290;28;20024;-66
2022/09/25 05:25:40;;;;;;;9.65;3.90;;;;;;;;;;5049287;28;20066;-67
2022/09/25 05:28:06;;;;;;;15.13;4.05;;;;;;;;;;5070929;28;20109;-67
2022/09/25 05:30:34;;;;;;;8.82;3.38;;;;;;;;;;5070016;28;20032;-66
2022/09/25 05:32:59;;;;;;;9.05;3.67;;;;;;;;;;5019255;28;20167;-67
2022/09/25 05:35:27;;;;;;;9.23;3.97;;;;;;;;;;5030760;28;20037;-67
2022/09/25 05:37:52;;;;;;;8.27;3.92;;;;;;;;;;5044300;28;20029;-66
2022/09/25 05:40:22;;;;;;;10.52;3.65;;;;;;;;;;5033435;28;20032;-67
2022/09/25 05:42:48;;;;;;;11.07;4.53;;;;;;;;;;5052500;28;20040;-67
2022/09/25 05:45:14;;;;;;;11.90;3.83;;;;;;;;;;5070527;28;20039;-67
2022/09/25 05:47:41;;;;;;;11.52;3.92;;;;;;;;;;5070395;28;20480;-67
2022/09/25 05:50:08;;;;;;;13.32;4.13;;;;;;;;;;5070657;28;20108;-66
2022/09/25 05:52:33;;;;;;;11.60;4.13;;;;;;;;;;5070406;28;20040;-67
2022/09/25 05:54:59;;;;;;;9.27;4.00;;;;;;;;;;5045774;28;20020;-66
2022/09/25 05:57:25;;;;;;;11.02;3.72;;;;;;;;;;5033277;28;20111;-67
2022/09/25 05:59:50;;;;;;;7.07;3.33;;;;;;;;;;5030253;28;20510;-67
2022/09/25 06:02:15;;;;;;;6.88;3.67;;;;;;;;;;5029544;28;20045;-67
2022/09/25 06:04:41;;;;;;;11.27;4.00;;;;;;;;;;5029417;28;20509;-67
2022/09/25 06:07:08;;;;;;;9.73;4.13;;;;;;;;;;5033116;28;20553;-67
2022/09/25 06:09:34;;;;;;;8.00;3.63;;;;;;;;;;5046463;28;20029;-66
2022/09/25 06:11:59;;;;;;;11.10;3.75;;;;;;;;;;5029698;28;20041;-66
2022/09/25 06:14:25;;;;;;;8.63;3.85;;;;;;;;;;5028385;28;20124;-66
2022/09/25 06:16:50;;;;;;;10.63;3.83;;;;;;;;;;5029740;28;20017;-66
2022/09/25 06:19:16;;;;;;;14.55;3.95;;;;;;;;;;5028745;28;20041;-66
2022/09/25 06:21:45;;;;;;;8.02;3.70;;;;;;;;;;5029547;28;20025;-67
2022/09/25 06:24:10;;;;;;;10.77;4.25;;;;;;;;;;5036927;28;20263;-67
2022/09/25 06:26:35;;;;;;;8.88;4.05;;;;;;;;;;5031080;28;20568;-67
2022/09/25 06:29:02;;;;;;;10.60;3.55;;;;;;;;;;5049482;28;20021;-66
2022/09/25 06:31:27;;;;;;;11.02;3.60;;;;;;;;;;5030797;28;20033;-67
2022/09/25 06:33:52;;;;;;;8.27;3.92;;;;;;;;;;5063328;28;20033;-67
2022/09/25 06:36:18;;;;;;;6.20;3.67;;;;;;;;;;5068680;28;20077;-67
2022/09/25 06:38:43;;;;;;;10.63;3.45;;;;;;;;;;5061075;28;20044;-66
2022/09/25 06:41:08;;;;;;;7.97;3.60;;;;;;;;;;5033780;28;20056;-66
2022/09/25 06:43:33;;;;;;;8.25;3.55;;;;;;;;;;5026561;28;20506;-66
2022/09/25 06:46:03;;;;;;;9.95;3.60;;;;;;;;;;5026400;28;20538;-67
2022/09/25 06:48:29;;;;;;;10.63;3.38;;;;;;;;;;5037359;28;20033;-66
2022/09/25 06:50:58;;;;;;;7.13;4.10;;;;;;;;;;5047399;28;20095;-66
2022/09/25 06:53:24;;;;;;;11.43;3.97;;;;;;;;;;5050734;28;20584;-67
2022/09/25 06:55:50;;;;;;;11.57;3.97;;;;;;;;;;5040893;28;20025;-66
2022/09/25 06:58:20;;;;;;;9.88;3.97;;;;;;;;;;5038618;28;20399;-67
2022/09/25 07:00:46;;;;;;;11.88;3.92;;;;;;;;;;5045456;28;20043;-67
2022/09/25 07:05:58;;;;;;;;;;;;;;;;;;5047759;28;20036;-67
2022/09/25 07:08:23;;;;;;;6.57;3.88;;;;;;;;;;5047121;28;19990;-66
2022/09/25 07:10:50;;;;;;;8.77;4.22;;;;;;;;;;5046910;28;20079;-66
2022/09/25 07:13:23;;;;;;;9.65;3.50;;;;;;;;;;5047151;28;20040;-66
2022/09/25 07:15:57;;;;;;;14.13;3.65;;;;;;;;;;5043606;28;20037;-66
2022/09/25 07:18:24;;;;;;;19.67;4.30;;;;;;;;;;5047590;28;20398;-67
2022/09/25 07:20:51;;;;;;;7.40;3.97;;;;;;;;;;5018720;28;20041;-66
2022/09/25 07:23:17;;;;;;;10.45;3.53;;;;;;;;;;5027102;28;20030;-66
2022/09/25 07:25:44;;;;;;;11.18;3.80;;;;;;;;;;5027911;28;20095;-66
2022/09/25 07:28:12;;;;;;;9.00;3.70;;;;;;;;;;5031802;28;20030;-66
2022/09/25 07:30:38;;;;;;;8.32;3.67;;;;;;;;;;5036477;28;20037;-66
2022/09/25 07:33:04;;;;;;;11.20;4.15;;;;;;;;;;5037445;28;20115;-66
2022/09/25 07:35:29;;;;;;;11.38;3.78;;;;;;;;;;5043503;28;20041;-66
2022/09/25 07:37:56;;;;;;;9.52;3.28;;;;;;;;;;5047167;28;20514;-66
2022/09/25 07:40:21;;;;;;;10.82;3.90;;;;;;;;;;5029908;28;20033;-66
2022/09/25 07:42:47;;;;;;;12.40;3.75;;;;;;;;;;5043143;28;20506;-66
2022/09/25 07:45:12;;;;;;;10.07;3.40;;;;;;;;;;5038425;28;20402;-66
2022/09/25 07:47:37;;;;;;;10.40;4.57;;;;;;;;;;5042926;28;20513;-66
2022/09/25 07:50:03;;;;;;;7.10;3.30;;;;;;;;;;5040834;28;20082;-66
2022/09/25 07:52:28;;;;;;;7.72;3.33;;;;;;;;;;5039312;28;20076;-66
2022/09/25 07:54:54;;;;;;;11.77;3.63;;;;;;;;;;5045585;28;20033;-66
2022/09/25 07:57:19;;;;;;;10.98;3.80;;;;;;;;;;5041629;28;20040;-66
2022/09/25 07:59:47;;;;;;;8.73;3.60;;;;;;;;;;5045222;28;20610;-66
2022/09/25 08:02:12;;;;;;;6.85;3.15;;;;;;;;;;5036774;28;20025;-66
2022/09/25 08:04:38;;;;;;;8.27;3.75;;;;;;;;;;5038355;28;20059;-66
2022/09/25 08:07:03;;;;;;;9.85;3.92;;;;;;;;;;5035379;28;20033;-66
2022/09/25 08:09:29;;;;;;;9.93;3.78;;;;;;;;;;5041373;28;20417;-66
2022/09/25 08:11:54;;;;;;;7.13;4.03;;;;;;;;;;5038612;28;20033;-66
2022/09/25 08:14:21;;;;;;;6.40;3.45;;;;;;;;;;5038274;28;20032;-66
2022/09/25 08:16:47;;;;;;;11.48;3.17;;;;;;;;;;5035041;28;20051;-66
2022/09/25 08:19:16;;;;;;;8.02;3.10;;;;;;;;;;5029148;28;20076;-66
2022/09/25 08:21:41;;;;;;;8.77;3.58;;;;;;;;;;5040791;28;20043;-66
2022/09/25 08:24:07;;;;;;;11.05;3.40;;;;;;;;;;5042192;28;20029;-66
2022/09/25 08:26:32;;;;;;;7.53;3.55;;;;;;;;;;5044845;28;20111;-66
2022/09/25 08:28:58;;;;;;;6.07;3.45;;;;;;;;;;5047063;28;20064;-66
2022/09/25 08:31:24;;;;;;;8.65;3.80;;;;;;;;;;5057017;28;20089;-66
2022/09/25 08:33:49;;;;;;;6.30;3.08;;;;;;;;;;5067450;28;20372;-66
2022/09/25 08:36:16;;;;;;;8.13;2.95;;;;;;;;;;5038939;28;20044;-66
2022/09/25 08:38:41;;;;;;;6.63;2.78;;;;;;;;;;5019458;28;20082;-66
2022/09/25 08:41:17;;;;;;;7.68;3.10;;;;;;;;;;5042387;28;20021;-66
2022/09/25 08:44:07;;;;;;;13.82;2.95;;;;;;;;;;5026241;28;20905;-66
2022/09/25 08:49:33;;;;;;;12.88;3.05;;;;;;;;;;5055896;28;20591;-66
2022/09/25 08:52:03;;;;;;;6.70;2.67;;;;;;;;;;5034780;28;20534;-67
2022/09/25 08:54:30;;;;;;;4.72;2.53;;;;;;;;;;5036389;28;20110;-66
2022/09/25 08:57:00;;;;;;;6.25;2.47;;;;;;;;;;5040117;28;20033;-66
2022/09/25 08:59:39;;;;;;;6.57;2.70;;;;;;;;;;5040139;28;20540;-66
2022/09/25 09:02:23;;;;;;;4.88;2.15;;;;;;;;;;5047214;28;20024;-67
2022/09/25 09:04:55;;;;;;;3.85;1.85;;;;;;;;;;5032039;28;20055;-66
2022/09/25 09:07:24;;;;;;;3.33;1.45;;;;;;;;;;5048107;28;20037;-66
2022/09/25 09:09:57;;;;;;;3.15;1.67;;;;;;;;;;5039286;28;20124;-66
2022/09/25 09:12:44;;;;;;;7.90;1.90;;;;;;;;;;5047432;28;20474;-66
2022/09/25 09:15:48;;;;;;;4.70;1.35;;;;;;;;;;5031534;28;20037;-66
2022/09/25 09:18:20;;;;;;;3.20;1.30;;;;;;;;;;4967297;28;20046;-66
2022/09/25 09:21:13;;;;;;;2.38;1.35;;;;;;;;;;5037526;28;20037;-66
2022/09/25 09:23:44;;;;;;;3.35;1.35;;;;;;;;;;5022426;28;20051;-66
2022/09/25 09:26:18;;;;;;;5.90;1.38;;;;;;;;;;5031499;28;20121;-67
2022/09/25 09:29:18;;;;;;;2.65;1.48;;;;;;;;;;5048272;28;20508;-66
2022/09/25 09:32:10;;;;;;;2.58;1.45;;;;;;;;;;5049354;28;20124;-66
2022/09/25 09:34:42;;;;;;;3.72;1.70;;;;;;;;;;5027364;28;20426;-67
2022/09/25 09:37:17;;;;;;;5.15;1.52;;;;;;;;;;5040317;28;20060;-66
2022/09/25 09:39:48;;;;;;;5.10;1.40;;;;;;;;;;5039055;28;20095;-67
2022/09/25 09:42:33;;;;;;;7.80;1.38;;;;;;;;;;5045433;28;20049;-67
2022/09/25 09:45:15;;;;;;;9.95;1.30;;;;;;;;;;5024642;28;20529;-67
2022/09/25 09:47:52;;;;;;;4.40;1.40;;;;;;;;;;5048995;28;20029;-67
2022/09/25 09:50:20;;;;;;;4.20;1.42;;;;;;;;;;5043875;28;20021;-67
2022/09/25 09:52:50;;;;;;;3.10;1.30;;;;;;;;;;5028124;28;20067;-67
2022/09/25 09:55:21;;;;;;;1.73;0.98;;;;;;;;;;5043278;28;20534;-67
2022/09/25 09:58:03;;;;;;;3.80;1.52;;;;;;;;;;5024891;28;20037;-67
2022/09/25 10:00:29;;;;;;;2.58;1.42;;;;;;;;;;5046315;28;20429;-67
2022/09/25 10:02:59;;;;;;;4.35;1.33;;;;;;;;;;5045621;28;20029;-67
2022/09/25 10:05:26;;;;;;;2.42;1.10;;;;;;;;;;5020193;28;20041;-68
2022/09/25 10:07:52;;;;;;;4.47;1.33;;;;;;;;;;5040687;28;20498;-67
2022/09/25 10:10:19;;;;;;;5.47;1.40;;;;;;;;;;5024563;28;20044;-67
2022/09/25 10:12:52;;;;;;;3.15;1.08;;;;;;;;;;5034166;28;20449;-67
2022/09/25 10:15:38;;;;;;;2.78;1.40;;;;;;;;;;5010244;28;20675;-67
2022/09/25 10:18:05;;;;;;;2.08;1.33;;;;;;;;;;5044023;28;20044;-68
2022/09/25 10:20:44;;;;;;;3.08;1.65;;;;;;;;;;5045209;28;20047;-67
2022/09/25 10:23:37;;;;;;;4.78;1.55;;;;;;;;;;5043916;28;20107;-67
2022/09/25 10:26:24;;;;;;;1.38;1.20;;;;;;;;;;5013568;28;20025;-68
2022/09/25 10:28:49;;;;;;;1.80;1.20;;;;;;;;;;5028973;28;20411;-68
2022/09/25 10:31:17;;;;;;;4.05;1.80;;;;;;;;;;5035548;28;20032;-67
2022/09/25 10:33:58;;;;;;;2.63;1.65;;;;;;;;;;5027364;28;20422;-67
2022/09/25 10:36:32;;;;;;;4.60;1.80;;;;;;;;;;5038146;28;20040;-67
2022/09/25 10:38:57;;;;;;;8.52;1.80;;;;;;;;;;5032496;28;20129;-68
2022/09/25 10:41:23;;;;;;;3.88;1.83;;;;;;;;;;5040825;28;20071;-67
2022/09/25 10:43:55;;;;;;;2.88;1.42;;;;;;;;;;5034403;28;20429;-67
2022/09/25 10:52:08;;;;;;;;;;;;;;;;;;5041268;28;20076;-67
2022/09/25 10:54:34;;;;;;;7.75;1.05;;;;;;;;;;5042979;28;19917;-67
2022/09/25 10:57:12;;;;;;;2.85;1.10;;;;;;;;;;5037751;28;20049;-67
2022/09/25 10:59:38;;;;;;;4.35;1.17;;;;;;;;;;5025323;28;20521;-67
2022/09/25 11:02:15;;;;;;;1.63;1.10;;;;;;;;;;5041066;28;20498;-67
2022/09/25 11:04:42;;;;;;;6.18;1.20;;;;;;;;;;5026465;28;20041;-67
2022/09/25 11:07:17;;;;;;;1.83;1.15;;;;;;;;;;5035423;28;20033;-67
2022/09/25 11:09:43;;;;;;;5.93;1.10;;;;;;;;;;5043111;28;20033;-67
2022/09/25 11:12:24;;;;;;;3.00;1.13;;;;;;;;;;5029373;28;20453;-67
2022/09/25 11:15:00;;;;;;;4.85;1.40;;;;;;;;;;5039617;28;20387;-66
2022/09/25 11:17:37;;;;;;;1.80;1.30;;;;;;;;;;5034891;28;20079;-67
2022/09/25 11:20:15;;;;;;;12.25;1.67;;;;;;;;;;5017254;28;20083;-67
2022/09/25 11:22:45;;;;;;;2.22;1.38;;;;;;;;;;5040774;28;20037;-67
2022/09/25 11:25:16;;;;;;;1.35;0.90;;;;;;;;;;5029095;28;20422;-67
2022/09/25 11:27:52;;;;;;;1.98;1.10;;;;;;;;;;5028177;28;20458;-66
2022/09/25 11:30:19;;;;;;;3.95;1.13;;;;;;;;;;5046766;28;20120;-67
2022/09/25 11:32:57;;;;;;;2.80;1.33;;;;;;;;;;5028561;28;20546;-67
2022/09/25 11:35:28;;;;;;;1.98;1.00;;;;;;;;;;5027522;28;20082;-67
2022/09/25 11:38:06;;;;;;;2.72;1.20;;;;;;;;;;5032079;28;20437;-67
2022/09/25 11:43:37;;;;;;;1.13;0.77;;;;;;;;;;5041758;28;20044;-67
2022/09/25 11:46:15;;;;;;;0.82;0.82;;;;;;;;;;5021514;28;20071;-67
2022/09/25 11:48:40;;;;;;;1.35;1.10;;;;;;;;;;5033066;28;20033;-67
2022/09/25 11:51:11;;;;;;;1.92;1.10;;;;;;;;;;5029910;28;20573;-67
2022/09/25 11:53:55;;;;;;;2.20;0.80;;;;;;;;;;5041391;28;20406;-67
2022/09/25 11:56:30;;;;;;;4.70;1.00;;;;;;;;;;5039965;28;20067;-67
2022/09/25 11:58:58;;;;;;;1.67;0.80;;;;;;;;;;5042178;28;20032;-66
2022/09/25 12:01:31;;;;;;;3.33;1.10;;;;;;;;;;5025958;28;20094;-67
2022/09/25 12:04:23;;;;;;;3.95;1.40;;;;;;;;;;5040960;28;20417;-67
2022/09/25 12:07:07;;;;;;;3.25;1.40;;;;;;;;;;5037664;28;20044;-67
2022/09/25 12:10:02;;;;;;;4.63;1.55;;;;;;;;;;5040754;28;20028;-67
2022/09/25 12:12:38;;;;;;;1.80;1.13;;;;;;;;;;5048480;28;20098;-67
2022/09/25 12:15:16;;;;;;;4.57;1.60;;;;;;;;;;5039213;28;20048;-67
2022/09/25 12:18:02;;;;;;;2.35;1.80;;;;;;;;;;5040447;28;20037;-66
2022/09/25 12:20:39;;;;;;;2.15;1.20;;;;;;;;;;5037549;28;20414;-67
2022/09/25 12:23:18;;;;;;;2.47;1.20;;;;;;;;;;5037581;28;20035;-67
2022/09/25 12:25:55;;;;;;;1.50;1.20;;;;;;;;;;5040296;28;20548;-67
2022/09/25 12:28:45;;;;;;;1.60;1.13;;;;;;;;;;5038424;28;20048;-67
2022/09/25 12:31:44;;;;;;;1.40;1.10;;;;;;;;;;5045179;28;20079;-67
2022/09/25 12:34:33;;;;;;;2.45;1.60;;;;;;;;;;5019755;28;20481;-67
2022/09/25 12:37:12;;;;;;;3.17;1.42;;;;;;;;;;5043241;28;20059;-67
2022/09/25 12:39:43;;;;;;;1.63;1.50;;;;;;;;;;5040021;28;20132;-67
2022/09/25 12:42:20;;;;;;;3.55;1.40;;;;;;;;;;5039764;28;20047;-67
2022/09/25 12:44:46;;;;;;;2.10;1.27;;;;;;;;;;5026759;28;20521;-67
2022/09/25 12:47:25;;;;;;;1.58;1.10;;;;;;;;;;5043043;28;20626;-67
2022/09/25 12:49:58;;;;;;;2.13;0.90;;;;;;;;;;5021726;28;20026;-67
2022/09/25 12:52:29;;;;;;;2.33;1.00;;;;;;;;;;5043350;28;20032;-67
2022/09/25 12:55:04;;;;;;;1.60;0.73;;;;;;;;;;5048382;28;20040;-67
2022/09/25 12:57:38;;;;;;;2.10;1.05;;;;;;;;;;5027634;28;20037;-67
2022/09/25 13:00:16;;;;;;;1.65;1.20;;;;;;;;;;5042624;28;20037;-67
2022/09/25 13:02:50;;;;;;;2.00;1.02;;;;;;;;;;5039398;28;20052;-67
2022/09/25 13:05:47;;;;;;;1.17;1.00;;;;;;;;;;5038857;28;20040;-67
2022/09/25 13:08:22;;;;;;;1.20;1.00;;;;;;;;;;5021960;28;20033;-66
2022/09/25 13:10:55;;;;;;;1.40;1.00;;;;;;;;;;5042083;28;20041;-67
2022/09/25 13:13:25;;;;;;;1.45;1.23;;;;;;;;;;5046327;28;20036;-67
2022/09/25 13:15:56;;;;;;;1.70;1.10;;;;;;;;;;5041332;28;20029;-66
2022/09/25 13:18:24;;;;;;;1.58;1.00;;;;;;;;;;5039766;28;20063;-66
2022/09/25 13:20:55;;;;;;;1.70;1.00;;;;;;;;;;5044224;28;20049;-66
2022/09/25 13:23:20;;;;;;;2.83;0.93;;;;;;;;;;5035831;28;20025;-66
2022/09/25 13:25:56;;;;;;;1.83;0.90;;;;;;;;;;5026453;28;20127;-66
2022/09/25 13:28:35;;;;;;;3.92;1.13;;;;;;;;;;5040385;28;20040;-66
2022/09/25 13:31:08;;;;;;;1.55;0.80;;;;;;;;;;5026150;28;20032;-67
2022/09/25 13:33:50;;;;;;;1.27;1.00;;;;;;;;;;5027747;28;20048;-66
2022/09/25 13:36:23;;;;;;;4.57;0.90;;;;;;;;;;5038258;28;20029;-66
2022/09/25 13:41:53;;;;;;;2.40;1.05;;;;;;;;;;5046549;28;20105;-64
2022/09/25 13:44:48;;;;;;;1.98;0.93;;;;;;;;;;5043050;28;20036;-67
2022/09/25 13:47:16;;;;;;;0.90;0.90;;;;;;;;;;5043135;28;20563;-66
2022/09/25 13:49:49;;;;;;;1.17;0.98;;;;;;;;;;5044558;28;20025;-66
2022/09/25 13:53:15;;;;;;;2.20;1.15;;;;;;;;;;5038876;28;20037;-66
2022/09/25 13:55:41;;;;;;;2.03;1.10;;;;;;;;;;5023552;28;20041;-66
2022/09/25 13:58:19;;;;;;;1.50;1.13;;;;;;;;;;5039548;28;20036;-66
2022/09/25 14:01:01;;;;;;;2.50;1.40;;;;;;;;;;5044032;28;20040;-66
2022/09/25 14:03:29;;;;;;;3.58;1.30;;;;;;;;;;5031229;28;20091;-66
2022/09/25 14:05:54;;;;;;;2.45;1.20;;;;;;;;;;5035694;28;20037;-66
2022/09/25 14:08:21;;;;;;;2.75;1.58;;;;;;;;;;5042659;28;20522;-66
2022/09/25 14:10:50;;;;;;;1.95;1.20;;;;;;;;;;5042626;28;20102;-67
2022/09/25 14:13:18;;;;;;;4.32;1.40;;;;;;;;;;5045603;28;20044;-66
2022/09/25 14:15:45;;;;;;;2.08;1.23;;;;;;;;;;5024366;28;20037;-66
2022/09/25 14:18:24;;;;;;;1.35;1.10;;;;;;;;;;5036678;28;20060;-66
2022/09/25 14:20:55;;;;;;;5.63;1.40;;;;;;;;;;5030399;28;20784;-66
2022/09/25 14:23:25;;;;;;;2.65;1.30;;;;;;;;;;5021494;28;20086;-66
2022/09/25 14:26:06;;;;;;;1.58;0.80;;;;;;;;;;5029435;28;20018;-66
2022/09/25 14:28:33;;;;;;;1.33;1.00;;;;;;;;;;5028300;28;20036;-66
2022/09/25 14:31:14;;;;;;;2.95;1.13;;;;;;;;;;5046430;28;20520;-66
2022/09/25 14:34:12;;;;;;;4.53;1.00;;;;;;;;;;5039385;28;20128;-66
2022/09/25 14:37:12;;;;;;;11.07;2.00;;;;;;;;;;5002492;28;20187;-67
2022/09/25 14:40:16;;;;;;;17.80;1.58;;;;;;;;;;5006223;28;20486;-66
2022/09/25 14:42:54;;;;;;;2.35;1.10;;;;;;;;;;5025651;28;20274;-67
2022/09/25 14:45:43;;;;;;;6.80;1.33;;;;;;;;;;5035315;28;20045;-67
2022/09/25 14:48:17;;;;;;;6.22;1.20;;;;;;;;;;5043178;28;20091;-67
2022/09/25 14:50:48;;;;;;;1.75;0.90;;;;;;;;;;5035562;28;20497;-67
2022/09/25 14:53:29;;;;;;;1.52;0.90;;;;;;;;;;5037232;28;20063;-67
2022/09/25 14:55:55;;;;;;;4.60;1.73;;;;;;;;;;5016657;28;20117;-67
2022/09/25 14:58:26;;;;;;;1.00;0.90;;;;;;;;;;5064910;28;20039;-68
2022/09/25 15:00:55;;;;;;;1.35;1.10;;;;;;;;;;5066450;28;20059;-67
2022/09/25 15:03:25;;;;;;;2.05;1.10;;;;;;;;;;5065336;28;20182;-68
2022/09/25 15:05:51;;;;;;;3.53;1.30;;;;;;;;;;5049320;28;20104;-68
2022/09/25 15:08:33;;;;;;;1.58;1.35;;;;;;;;;;5066265;28;20623;-67
2022/09/25 15:11:13;;;;;;;2.03;1.30;;;;;;;;;;5067064;28;20098;-68
2022/09/25 15:13:39;;;;;;;3.22;1.33;;;;;;;;;;5067109;28;20044;-68
2022/09/25 15:18:57;;;;;;;2.00;1.30;;;;;;;;;;5067301;28;20459;-68
2022/09/25 15:21:31;;;;;;;2.00;1.45;;;;;;;;;;5049346;28;20033;-68
2022/09/25 15:24:04;;;;;;;;;;;;;;;;;;5067804;28;20025;-68
2022/09/25 15:26:31;;;;;;;2.83;1.48;;;;;;;;;;5066897;28;19920;-67
2022/09/25 15:28:57;;;;;;;4.20;2.90;;;;;;;;;;5067585;28;20042;-68
2022/09/25 15:31:24;;;;;;;3.90;2.58;;;;;;;;;;5067153;28;20036;-68
2022/09/25 15:34:08;;;;;;;9.00;2.20;;;;;;;;;;5061834;28;20024;-68
2022/09/25 15:36:33;;;;;;;12.15;3.20;;;;;;;;;;5048094;28;20037;-68